createdAt,value
2019-05-25T00:00:06.622Z,1000.70
2019-05-25T00:01:06.612Z,1000.73
2019-05-25T00:02:06.599Z,1000.71
2019-05-25T00:03:06.621Z,1000.68
2019-05-25T00:04:06.579Z,1000.70
2019-05-25T00:05:06.566Z,1000.67
2019-05-25T00:06:06.558Z,1000.66
2019-05-25T00:07:06.540Z,1000.66
2019-05-25T00:08:06.549Z,1000.65
2019-05-25T00:09:06.532Z,1000.66
2019-05-25T00:10:06.509Z,1000.67
2019-05-25T00:11:06.508Z,1000.70
2019-05-25T00:12:06.504Z,1000.73
2019-05-25T00:13:06.497Z,1000.65
2019-05-25T00:14:06.490Z,1000.65
2019-05-25T00:15:06.453Z,1000.69
2019-05-25T00:16:06.448Z,1000.67
2019-05-25T00:17:06.491Z,1000.65
2019-05-25T00:18:06.450Z,1000.68
2019-05-25T00:19:06.408Z,1000.64
2019-05-25T00:20:06.420Z,1000.69
2019-05-25T00:21:06.394Z,1000.71
2019-05-25T00:22:06.400Z,1000.72
2019-05-25T00:23:06.374Z,1000.71
2019-05-25T00:24:12.341Z,1000.68
2019-05-25T00:25:07.348Z,1000.70
2019-05-25T00:26:06.341Z,1000.65
2019-05-25T00:27:06.328Z,1000.65
2019-05-25T00:28:06.318Z,1000.69
2019-05-25T00:29:06.326Z,1000.67
2019-05-25T00:30:06.295Z,1000.67
2019-05-25T00:31:06.336Z,1000.68
2019-05-25T00:32:06.273Z,1000.64
2019-05-25T00:33:06.261Z,1000.62
2019-05-25T00:34:06.263Z,1000.63
2019-05-25T00:35:06.258Z,1000.67
2019-05-25T00:36:06.230Z,1000.64
2019-05-25T00:37:06.227Z,1000.64
2019-05-25T00:38:06.207Z,1000.68
2019-05-25T00:39:06.211Z,1000.68
2019-05-25T00:40:06.189Z,1000.65
2019-05-25T00:41:06.172Z,1000.64
2019-05-25T00:42:06.174Z,1000.69
2019-05-25T00:43:06.156Z,1000.68
2019-05-25T00:44:06.313Z,1000.68
2019-05-25T00:45:06.158Z,1000.71
2019-05-25T00:46:06.117Z,1000.69
2019-05-25T00:47:06.110Z,1000.73
2019-05-25T00:48:06.101Z,1000.67
2019-05-25T00:49:06.113Z,1000.64
2019-05-25T00:50:06.076Z,1000.66
2019-05-25T00:51:06.066Z,1000.65
2019-05-25T00:52:06.056Z,1000.66
2019-05-25T00:53:06.045Z,1000.63
2019-05-25T00:54:06.064Z,1000.69
2019-05-25T00:55:06.028Z,1000.71
2019-05-25T00:56:06.015Z,1000.71
2019-05-25T00:57:06.008Z,1000.69
2019-05-25T00:58:06.000Z,1000.73
2019-05-25T00:59:06.003Z,1000.72
2019-05-25T01:00:05.997Z,1000.74
2019-05-25T01:01:06.376Z,1000.73
2019-05-25T01:02:05.994Z,1000.71
2019-05-25T01:03:05.939Z,1000.72
2019-05-25T01:04:05.959Z,1000.72
2019-05-25T01:05:05.913Z,1000.75
2019-05-25T01:06:05.909Z,1000.74
2019-05-25T01:07:05.896Z,1000.74
2019-05-25T01:08:05.904Z,1000.71
2019-05-25T01:09:05.893Z,1000.70
2019-05-25T01:10:05.858Z,1000.69
2019-05-25T01:11:05.854Z,1000.65
2019-05-25T01:12:05.838Z,1000.64
2019-05-25T01:13:05.825Z,1000.65
2019-05-25T01:14:05.839Z,1000.63
2019-05-25T01:15:05.819Z,1000.66
2019-05-25T01:16:05.801Z,1000.70
2019-05-25T01:17:05.790Z,1000.67
2019-05-25T01:18:05.773Z,1000.74
2019-05-25T01:19:05.778Z,1000.72
2019-05-25T01:20:05.756Z,1000.72
2019-05-25T01:21:05.758Z,1000.73
2019-05-25T01:22:05.731Z,1000.71
2019-05-25T01:23:05.720Z,1000.71
2019-05-25T01:24:05.723Z,1000.74
2019-05-25T01:25:05.697Z,1000.76
2019-05-25T01:26:05.692Z,1000.81
2019-05-25T01:27:05.680Z,1000.81
2019-05-25T01:28:05.671Z,1000.79
2019-05-25T01:29:05.674Z,1000.80
2019-05-25T01:30:05.641Z,1000.75
2019-05-25T01:31:05.663Z,1000.78
2019-05-25T01:32:05.622Z,1000.77
2019-05-25T01:33:05.621Z,1000.79
2019-05-25T01:34:05.621Z,1000.76
2019-05-25T01:35:05.593Z,1000.78
2019-05-25T01:36:05.581Z,1000.79
2019-05-25T01:37:05.571Z,1000.74
2019-05-25T01:38:05.562Z,1000.77
2019-05-25T01:39:05.568Z,1000.75
2019-05-25T01:40:05.541Z,1000.73
2019-05-25T01:41:05.531Z,1000.79
2019-05-25T01:42:05.511Z,1000.79
2019-05-25T01:43:05.506Z,1000.78
2019-05-25T01:44:05.519Z,1000.84
2019-05-25T01:45:05.482Z,1000.79
2019-05-25T01:46:05.477Z,1000.76
2019-05-25T01:47:05.465Z,1000.75
2019-05-25T01:48:05.455Z,1000.79
2019-05-25T01:49:05.459Z,1000.79
2019-05-25T01:50:05.440Z,1000.83
2019-05-25T01:51:05.418Z,1000.85
2019-05-25T01:52:05.414Z,1000.76
2019-05-25T01:53:05.404Z,1000.82
2019-05-25T01:54:05.413Z,1000.77
2019-05-25T01:55:05.375Z,1000.78
2019-05-25T01:56:05.366Z,1000.77
2019-05-25T01:57:05.350Z,1000.71
2019-05-25T01:58:05.352Z,1000.75
2019-05-25T01:59:05.337Z,1000.69
2019-05-25T02:00:05.423Z,1000.71
2019-05-25T02:01:05.314Z,1000.70
2019-05-25T02:02:05.296Z,1000.70
2019-05-25T02:03:05.292Z,1000.69
2019-05-25T02:04:05.277Z,1000.72
2019-05-25T02:05:05.301Z,1000.73
2019-05-25T02:06:05.260Z,1000.65
2019-05-25T02:07:05.274Z,1000.68
2019-05-25T02:08:05.236Z,1000.78
2019-05-25T02:09:05.223Z,1000.73
2019-05-25T02:10:05.236Z,1000.66
2019-05-25T02:11:05.207Z,1000.70
2019-05-25T02:12:05.194Z,1000.70
2019-05-25T02:13:05.185Z,1000.71
2019-05-25T02:14:05.172Z,1000.71
2019-05-25T02:15:05.177Z,1000.71
2019-05-25T02:16:05.156Z,1000.69
2019-05-25T02:17:05.159Z,1000.73
2019-05-25T02:18:05.134Z,1000.69
2019-05-25T02:19:05.120Z,1000.66
2019-05-25T02:20:05.130Z,1000.71
2019-05-25T02:21:05.100Z,1000.72
2019-05-25T02:22:05.081Z,1000.73
2019-05-25T02:23:05.073Z,1000.67
2019-05-25T02:24:05.066Z,1000.69
2019-05-25T02:25:16.896Z,1000.68
2019-05-25T02:26:06.054Z,1000.71
2019-05-25T02:27:05.099Z,1000.66
2019-05-25T02:28:05.020Z,1000.69
2019-05-25T02:29:05.007Z,1000.69
2019-05-25T02:30:05.042Z,1000.69
2019-05-25T02:31:04.990Z,1000.69
2019-05-25T02:32:04.978Z,1000.71
2019-05-25T02:33:04.971Z,1000.70
2019-05-25T02:34:04.953Z,1000.70
2019-05-25T02:35:04.960Z,1000.73
2019-05-25T02:36:04.934Z,1000.69
2019-05-25T02:37:04.920Z,1000.77
2019-05-25T02:38:04.916Z,1000.73
2019-05-25T02:39:04.918Z,1000.76
2019-05-25T02:40:04.923Z,1000.75
2019-05-25T02:41:04.878Z,1000.75
2019-05-25T02:42:04.878Z,1000.75
2019-05-25T02:43:04.867Z,1000.74
2019-05-25T02:44:04.849Z,1000.75
2019-05-25T02:45:04.856Z,1000.78
2019-05-25T02:46:04.823Z,1000.74
2019-05-25T02:47:04.817Z,1000.73
2019-05-25T02:48:04.803Z,1000.78
2019-05-25T02:49:04.794Z,1000.74
2019-05-25T02:50:04.803Z,1000.75
2019-05-25T02:51:04.780Z,1000.75
2019-05-25T02:52:04.764Z,1000.74
2019-05-25T02:53:04.779Z,1000.78
2019-05-25T02:54:04.738Z,1000.73
2019-05-25T02:55:04.745Z,1000.73
2019-05-25T02:56:04.767Z,1000.75
2019-05-25T02:57:04.712Z,1000.73
2019-05-25T02:58:04.703Z,1000.74
2019-05-25T02:59:04.685Z,1000.75
2019-05-25T03:00:04.804Z,1000.74
2019-05-25T03:01:04.661Z,1000.82
2019-05-25T03:02:04.662Z,1000.78
2019-05-25T03:03:04.678Z,1000.77
2019-05-25T03:04:04.634Z,1000.79
2019-05-25T03:05:04.648Z,1000.78
2019-05-25T03:06:04.642Z,1000.82
2019-05-25T03:07:04.599Z,1000.84
2019-05-25T03:08:04.592Z,1000.83
2019-05-25T03:09:04.576Z,1000.88
2019-05-25T03:10:04.588Z,1000.94
2019-05-25T03:11:04.561Z,1000.96
2019-05-25T03:12:04.600Z,1001.02
2019-05-25T03:13:04.535Z,1000.99
2019-05-25T03:14:04.528Z,1001.05
2019-05-25T03:15:04.795Z,1001.06
2019-05-25T03:16:04.513Z,1001.06
2019-05-25T03:17:04.496Z,1001.12
2019-05-25T03:18:04.486Z,1001.11
2019-05-25T03:19:04.471Z,1001.16
2019-05-25T03:20:04.476Z,1001.15
2019-05-25T03:21:04.446Z,1001.16
2019-05-25T03:22:04.445Z,1001.14
2019-05-25T03:23:04.432Z,1001.13
2019-05-25T03:24:04.420Z,1001.15
2019-05-25T03:25:04.433Z,1001.19
2019-05-25T03:26:04.534Z,1001.14
2019-05-25T03:27:04.387Z,1001.15
2019-05-25T03:28:04.382Z,1001.16
2019-05-25T03:29:04.369Z,1001.21
2019-05-25T03:30:04.351Z,1001.21
2019-05-25T03:31:04.359Z,1001.18
2019-05-25T03:32:04.338Z,1001.20
2019-05-25T03:33:04.328Z,1001.20
2019-05-25T03:34:04.331Z,1001.20
2019-05-25T03:35:04.303Z,1001.21
2019-05-25T03:36:04.307Z,1001.24
2019-05-25T03:37:04.283Z,1001.22
2019-05-25T03:38:04.266Z,1001.25
2019-05-25T03:39:04.275Z,1001.26
2019-05-25T03:40:04.248Z,1001.24
2019-05-25T03:41:04.248Z,1001.23
2019-05-25T03:42:04.228Z,1001.27
2019-05-25T03:43:04.219Z,1001.25
2019-05-25T03:44:04.202Z,1001.24
2019-05-25T03:45:04.189Z,1001.30
2019-05-25T03:46:04.227Z,1001.31
2019-05-25T03:47:04.219Z,1001.28
2019-05-25T03:48:04.162Z,1001.32
2019-05-25T03:49:04.173Z,1001.28
2019-05-25T03:50:04.163Z,1001.31
2019-05-25T03:51:04.145Z,1001.31
2019-05-25T03:52:04.179Z,1001.31
2019-05-25T03:53:04.102Z,1001.29
2019-05-25T03:54:04.107Z,1001.24
2019-05-25T03:55:04.086Z,1001.27
2019-05-25T03:56:06.258Z,1001.28
2019-05-25T03:57:04.069Z,1001.27
2019-05-25T03:58:04.048Z,1001.29
2019-05-25T03:59:04.039Z,1001.28
2019-05-25T04:00:04.033Z,1001.26
2019-05-25T04:01:04.039Z,1001.26
2019-05-25T04:02:04.022Z,1001.29
2019-05-25T04:03:04.001Z,1001.24
2019-05-25T04:04:03.986Z,1001.26
2019-05-25T04:05:03.975Z,1001.28
2019-05-25T04:06:04.054Z,1001.31
2019-05-25T04:07:03.958Z,1001.31
2019-05-25T04:08:03.949Z,1001.31
2019-05-25T04:09:03.937Z,1001.35
2019-05-25T04:10:03.935Z,1001.35
2019-05-25T04:11:03.925Z,1001.36
2019-05-25T04:12:03.926Z,1001.38
2019-05-25T04:13:03.889Z,1001.38
2019-05-25T04:14:03.885Z,1001.40
2019-05-25T04:15:03.872Z,1001.41
2019-05-25T04:16:03.871Z,1001.45
2019-05-25T04:17:03.844Z,1001.42
2019-05-25T04:18:03.846Z,1001.44
2019-05-25T04:19:03.835Z,1001.43
2019-05-25T04:20:03.816Z,1001.46
2019-05-25T04:21:03.825Z,1001.45
2019-05-25T04:22:03.792Z,1001.50
2019-05-25T04:23:03.787Z,1001.48
2019-05-25T04:24:03.770Z,1001.50
2019-05-25T04:25:03.774Z,1001.51
2019-05-25T04:26:03.807Z,1001.53
2019-05-25T04:27:03.746Z,1001.50
2019-05-25T04:28:03.729Z,1001.51
2019-05-25T04:29:03.725Z,1001.51
2019-05-25T04:30:03.703Z,1001.57
2019-05-25T04:31:03.723Z,1001.53
2019-05-25T04:32:03.688Z,1001.55
2019-05-25T04:33:03.681Z,1001.58
2019-05-25T04:34:03.664Z,1001.62
2019-05-25T04:35:03.694Z,1001.58
2019-05-25T04:36:03.661Z,1001.61
2019-05-25T04:37:03.627Z,1001.69
2019-05-25T04:38:03.627Z,1001.58
2019-05-25T04:39:03.612Z,1001.66
2019-05-25T04:40:03.604Z,1001.62
2019-05-25T04:41:04.454Z,1001.69
2019-05-25T04:42:03.578Z,1001.62
2019-05-25T04:43:03.563Z,1001.67
2019-05-25T04:44:03.556Z,1001.64
2019-05-25T04:45:03.544Z,1001.60
2019-05-25T04:46:03.540Z,1001.67
2019-05-25T04:47:03.548Z,1001.64
2019-05-25T04:48:03.544Z,1001.61
2019-05-25T04:49:03.513Z,1001.63
2019-05-25T04:50:03.507Z,1001.66
2019-05-25T04:51:03.491Z,1001.73
2019-05-25T04:52:03.510Z,1001.70
2019-05-25T04:53:03.473Z,1001.68
2019-05-25T04:54:03.452Z,1001.77
2019-05-25T04:55:03.451Z,1001.75
2019-05-25T04:56:03.431Z,1001.74
2019-05-25T04:57:03.832Z,1001.74
2019-05-25T04:58:03.446Z,1001.76
2019-05-25T04:59:03.427Z,1001.83
2019-05-25T05:00:03.391Z,1001.84
2019-05-25T05:01:03.378Z,1001.79
2019-05-25T05:02:03.384Z,1001.83
2019-05-25T05:03:03.351Z,1001.87
2019-05-25T05:04:03.361Z,1001.84
2019-05-25T05:05:03.330Z,1001.81
2019-05-25T05:06:03.319Z,1001.81
2019-05-25T05:07:03.319Z,1001.76
2019-05-25T05:08:03.296Z,1001.73
2019-05-25T05:09:03.293Z,1001.78
2019-05-25T05:10:03.545Z,1001.72
2019-05-25T05:11:03.291Z,1001.74
2019-05-25T05:12:03.278Z,1001.77
2019-05-25T05:13:03.249Z,1001.78
2019-05-25T05:14:03.242Z,1001.73
2019-05-25T05:15:03.223Z,1001.72
2019-05-25T05:16:03.215Z,1001.81
2019-05-25T05:17:03.451Z,1001.77
2019-05-25T05:18:03.197Z,1001.78
2019-05-25T05:19:03.190Z,1001.79
2019-05-25T05:20:03.169Z,1001.65
2019-05-25T05:21:03.192Z,1001.75
2019-05-25T05:22:05.817Z,1001.75
2019-05-25T05:23:03.158Z,1001.78
2019-05-25T05:24:03.137Z,1001.74
2019-05-25T05:25:03.135Z,1001.71
2019-05-25T05:26:03.107Z,1001.79
2019-05-25T05:27:04.242Z,1001.75
2019-05-25T05:28:03.082Z,1001.81
2019-05-25T05:29:03.073Z,1001.85
2019-05-25T05:30:03.067Z,1001.92
2019-05-25T05:31:03.063Z,1001.89
2019-05-25T05:32:03.227Z,1001.90
2019-05-25T05:33:03.034Z,1001.88
2019-05-25T05:34:03.048Z,1001.81
2019-05-25T05:35:03.008Z,1001.71
2019-05-25T05:36:03.004Z,1001.77
2019-05-25T05:37:04.393Z,1001.82
2019-05-25T05:38:02.996Z,1001.64
2019-05-25T05:39:02.994Z,1001.76
2019-05-25T05:40:02.975Z,1001.81
2019-05-25T05:41:02.981Z,1001.93
2019-05-25T05:42:04.261Z,1001.93
2019-05-25T05:43:02.929Z,1001.86
2019-05-25T05:44:02.938Z,1001.93
2019-05-25T05:45:02.908Z,1001.88
2019-05-25T05:46:02.901Z,1001.90
2019-05-25T05:47:04.362Z,1001.91
2019-05-25T05:48:02.865Z,1001.85
2019-05-25T05:49:02.859Z,1001.83
2019-05-25T05:50:02.865Z,1001.87
2019-05-25T05:51:02.842Z,1001.88
2019-05-25T05:52:04.247Z,1001.81
2019-05-25T05:53:02.867Z,1001.82
2019-05-25T05:54:02.863Z,1001.80
2019-05-25T05:55:02.812Z,1001.85
2019-05-25T05:56:02.787Z,1001.87
2019-05-25T05:57:11.880Z,1001.87
2019-05-25T05:58:04.172Z,1001.87
2019-05-25T05:59:02.768Z,1001.87
2019-05-25T06:00:02.758Z,1001.82
2019-05-25T06:01:02.734Z,1001.85
2019-05-25T06:02:02.730Z,1001.81
2019-05-25T06:03:04.122Z,1001.89
2019-05-25T06:04:02.714Z,1001.92
2019-05-25T06:05:03.165Z,1001.93
2019-05-25T06:06:02.690Z,1001.95
2019-05-25T06:07:02.684Z,1001.95
2019-05-25T06:08:04.060Z,1002.00
2019-05-25T06:09:02.655Z,1002.02
2019-05-25T06:10:02.641Z,1002.03
2019-05-25T06:11:02.639Z,1002.01
2019-05-25T06:12:02.626Z,1001.99
2019-05-25T06:13:04.338Z,1002.01
2019-05-25T06:14:02.595Z,1002.02
2019-05-25T06:15:02.696Z,1002.03
2019-05-25T06:16:02.576Z,1002.00
2019-05-25T06:17:02.560Z,1001.99
2019-05-25T06:18:02.574Z,1001.98
2019-05-25T06:19:02.548Z,1001.92
2019-05-25T06:20:02.551Z,1001.87
2019-05-25T06:21:02.534Z,1001.90
2019-05-25T06:22:02.551Z,1001.86
2019-05-25T06:23:06.916Z,1001.96
2019-05-25T06:24:03.483Z,1001.95
2019-05-25T06:25:02.474Z,1001.96
2019-05-25T06:26:02.487Z,1001.96
2019-05-25T06:27:02.459Z,1001.94
2019-05-25T06:28:04.341Z,1001.94
2019-05-25T06:29:02.438Z,1001.90
2019-05-25T06:30:02.438Z,1001.87
2019-05-25T06:31:02.414Z,1001.96
2019-05-25T06:32:02.414Z,1001.92
2019-05-25T06:33:03.982Z,1001.92
2019-05-25T06:34:02.381Z,1001.97
2019-05-25T06:35:02.384Z,1001.98
2019-05-25T06:36:02.368Z,1001.99
2019-05-25T06:37:02.354Z,1002.00
2019-05-25T06:38:04.208Z,1001.99
2019-05-25T06:39:02.331Z,1002.07
2019-05-25T06:40:02.319Z,1002.01
2019-05-25T06:41:02.307Z,1002.04
2019-05-25T06:42:02.493Z,1002.02
2019-05-25T06:43:04.181Z,1002.08
2019-05-25T06:44:02.292Z,1002.07
2019-05-25T06:45:02.281Z,1002.11
2019-05-25T06:46:02.253Z,1002.06
2019-05-25T06:47:02.257Z,1002.08
2019-05-25T06:48:04.205Z,1002.08
2019-05-25T06:49:02.229Z,1002.07
2019-05-25T06:50:02.208Z,1002.09
2019-05-25T06:51:02.235Z,1002.15
2019-05-25T06:52:02.196Z,1002.16
2019-05-25T06:53:04.339Z,1002.10
2019-05-25T06:54:02.172Z,1002.07
2019-05-25T06:55:02.170Z,1002.08
2019-05-25T06:56:02.157Z,1002.03
2019-05-25T06:57:02.140Z,1002.05
2019-05-25T06:58:04.040Z,1002.09
2019-05-25T06:59:02.120Z,1002.12
2019-05-25T07:00:02.129Z,1002.10
2019-05-25T07:01:02.109Z,1002.11
2019-05-25T07:02:02.091Z,1002.09
2019-05-25T07:03:03.936Z,1002.09
2019-05-25T07:04:02.120Z,1002.07
2019-05-25T07:05:02.063Z,1002.00
2019-05-25T07:06:02.041Z,1002.05
2019-05-25T07:07:02.045Z,1002.10
2019-05-25T07:08:04.317Z,1002.04
2019-05-25T07:09:02.006Z,1002.05
2019-05-25T07:10:02.000Z,1002.12
2019-05-25T07:11:01.994Z,1002.06
2019-05-25T07:12:01.981Z,1002.15
2019-05-25T07:13:04.316Z,1002.14
2019-05-25T07:14:01.951Z,1002.13
2019-05-25T07:15:01.942Z,1002.09
2019-05-25T07:16:01.979Z,1002.09
2019-05-25T07:17:01.934Z,1002.08
2019-05-25T07:18:03.043Z,1002.11
2019-05-25T07:19:01.911Z,1002.08
2019-05-25T07:20:01.894Z,1002.08
2019-05-25T07:21:01.878Z,1002.05
2019-05-25T07:22:01.865Z,1002.04
2019-05-25T07:23:01.864Z,1002.09
2019-05-25T07:24:03.076Z,1002.06
2019-05-25T07:25:01.870Z,1002.10
2019-05-25T07:26:01.824Z,1002.10
2019-05-25T07:27:01.815Z,1002.09
2019-05-25T07:28:01.795Z,1002.05
2019-05-25T07:29:04.446Z,1002.09
2019-05-25T07:30:01.796Z,1002.10
2019-05-25T07:31:01.777Z,1002.03
2019-05-25T07:32:01.761Z,1002.05
2019-05-25T07:33:01.750Z,1002.00
2019-05-25T07:34:03.515Z,1002.05
2019-05-25T07:35:01.752Z,1002.16
2019-05-25T07:36:07.023Z,1002.20
2019-05-25T07:37:02.712Z,1002.21
2019-05-25T07:38:01.696Z,1002.24
2019-05-25T07:39:05.373Z,1002.22
2019-05-25T07:40:01.697Z,1002.25
2019-05-25T07:41:01.666Z,1002.19
2019-05-25T07:42:01.656Z,1002.37
2019-05-25T07:43:01.639Z,1002.47
2019-05-25T07:44:03.222Z,1002.59
2019-05-25T07:45:01.626Z,1002.24
2019-05-25T07:46:01.637Z,1002.51
2019-05-25T07:47:01.629Z,1002.74
2019-05-25T07:48:01.603Z,1002.88
2019-05-25T07:49:04.456Z,1002.84
2019-05-25T07:50:01.577Z,1002.65
2019-05-25T07:51:01.569Z,1002.33
2019-05-25T07:52:02.716Z,1002.24
2019-05-25T07:53:01.586Z,1002.22
2019-05-25T07:54:03.365Z,1002.18
2019-05-25T07:55:01.546Z,1002.29
2019-05-25T07:56:01.529Z,1002.45
2019-05-25T07:57:01.505Z,1002.22
2019-05-25T07:58:15.714Z,1002.29
2019-05-25T07:59:05.390Z,1002.31
2019-05-25T08:00:01.476Z,1002.37
2019-05-25T08:01:01.463Z,1002.26
2019-05-25T08:02:01.477Z,1002.24
2019-05-25T08:03:01.448Z,1002.30
2019-05-25T08:04:04.430Z,1002.35
2019-05-25T08:05:01.463Z,1002.22
2019-05-25T08:06:01.421Z,1002.26
2019-05-25T08:07:01.403Z,1002.28
2019-05-25T08:08:01.961Z,1002.41
2019-05-25T08:09:04.115Z,1002.49
2019-05-25T08:10:01.443Z,1002.57
2019-05-25T08:11:01.376Z,1002.46
2019-05-25T08:12:01.387Z,1002.63
2019-05-25T08:13:01.348Z,1002.64
2019-05-25T08:14:04.784Z,1002.48
2019-05-25T08:15:01.339Z,1002.40
2019-05-25T08:16:01.353Z,1002.42
2019-05-25T08:17:01.347Z,1002.57
2019-05-25T08:18:01.308Z,1002.75
2019-05-25T08:19:01.282Z,1002.79
2019-05-25T08:20:03.344Z,1002.65
2019-05-25T08:21:01.422Z,1002.22
2019-05-25T08:22:01.343Z,1002.48
2019-05-25T08:23:01.254Z,1002.61
2019-05-25T08:24:01.248Z,1002.81
2019-05-25T08:25:04.071Z,1002.86
2019-05-25T08:26:01.215Z,1002.82
2019-05-25T08:27:01.211Z,1002.74
2019-05-25T08:28:01.193Z,1002.75
2019-05-25T08:29:01.240Z,1002.94
2019-05-25T08:30:03.258Z,1002.78
2019-05-25T08:31:01.626Z,1002.85
2019-05-25T08:32:01.162Z,1002.92
2019-05-25T08:33:01.158Z,1002.96
2019-05-25T08:34:01.164Z,1002.97
2019-05-25T08:35:03.236Z,1003.03
2019-05-25T08:36:01.155Z,1003.12
2019-05-25T08:37:01.133Z,1003.16
2019-05-25T08:38:01.110Z,1002.96
2019-05-25T08:39:01.093Z,1002.99
2019-05-25T08:40:03.335Z,1003.07
2019-05-25T08:41:01.086Z,1003.13
2019-05-25T08:42:01.082Z,1003.11
2019-05-25T08:43:01.143Z,1002.52
2019-05-25T08:44:04.238Z,1002.84
2019-05-25T08:45:04.087Z,1003.05
2019-05-25T08:46:01.030Z,1003.00
2019-05-25T08:47:01.022Z,1003.12
2019-05-25T08:48:01.047Z,1003.01
2019-05-25T08:49:01.018Z,1002.54
2019-05-25T08:50:04.843Z,1002.80
2019-05-25T08:51:00.991Z,1002.58
2019-05-25T08:52:04.089Z,1003.08
2019-05-25T08:53:01.266Z,1003.09
2019-05-25T08:54:00.961Z,1003.20
2019-05-25T08:55:03.184Z,1003.19
2019-05-25T08:56:00.973Z,1002.91
2019-05-25T08:57:00.939Z,1002.82
2019-05-25T08:58:00.924Z,1002.80
2019-05-25T08:59:00.918Z,1002.76
2019-05-25T09:00:04.330Z,1002.70
2019-05-25T09:01:00.930Z,1002.77
2019-05-25T09:02:00.904Z,1003.02
2019-05-25T09:03:00.872Z,1003.19
2019-05-25T09:04:00.874Z,1002.95
2019-05-25T09:05:03.203Z,1002.95
2019-05-25T09:06:00.849Z,1002.62
2019-05-25T09:07:00.839Z,1002.68
2019-05-25T09:08:00.830Z,1002.68
2019-05-25T09:09:00.846Z,1003.13
2019-05-25T09:10:04.298Z,1002.76
2019-05-25T09:11:00.807Z,1002.75
2019-05-25T09:12:02.379Z,1002.79
2019-05-25T09:13:00.785Z,1003.05
2019-05-25T09:14:00.782Z,1003.28
2019-05-25T09:15:05.984Z,1003.17
2019-05-25T09:16:00.773Z,1003.16
2019-05-25T09:17:00.745Z,1003.08
2019-05-25T09:18:00.751Z,1003.04
2019-05-25T09:19:00.734Z,1002.86
2019-05-25T09:20:04.512Z,1003.05
2019-05-25T09:21:00.714Z,1003.09
2019-05-25T09:22:02.956Z,1003.25
2019-05-25T09:23:00.763Z,1003.19
2019-05-25T09:24:00.949Z,1003.20
2019-05-25T09:25:03.111Z,1003.17
2019-05-25T09:26:00.663Z,1003.09
2019-05-25T09:27:00.672Z,1003.08
2019-05-25T09:28:00.673Z,1003.19
2019-05-25T09:29:04.642Z,1003.06
2019-05-25T09:30:04.436Z,1003.00
2019-05-25T09:31:00.625Z,1003.04
2019-05-25T09:32:00.619Z,1003.08
2019-05-25T09:33:00.607Z,1003.11
2019-05-25T09:34:00.630Z,1002.56
2019-05-25T09:35:04.606Z,1002.58
2019-05-25T09:36:00.579Z,1002.57
2019-05-25T09:37:00.568Z,1002.50
2019-05-25T09:38:00.573Z,1002.49
2019-05-25T09:39:00.570Z,1002.98
2019-05-25T09:40:00.533Z,1003.00
2019-05-25T09:41:03.062Z,1003.04
2019-05-25T09:42:00.533Z,1003.06
2019-05-25T09:43:00.525Z,1002.57
2019-05-25T09:44:00.512Z,1003.08
2019-05-25T09:45:00.523Z,1003.05
2019-05-25T09:46:03.446Z,1002.51
2019-05-25T09:47:00.470Z,1003.00
2019-05-25T09:48:00.458Z,1002.95
2019-05-25T09:49:00.451Z,1002.93
2019-05-25T09:50:00.449Z,1003.00
2019-05-25T09:51:04.029Z,1003.02
2019-05-25T09:52:00.419Z,1002.48
2019-05-25T09:53:00.419Z,1003.03
2019-05-25T09:54:00.411Z,1002.99
2019-05-25T09:55:00.398Z,1002.97
2019-05-25T09:56:05.292Z,1002.96
2019-05-25T09:57:00.414Z,1002.94
2019-05-25T09:58:00.407Z,1002.92
2019-05-25T09:59:00.389Z,1002.99
2019-05-25T10:00:00.352Z,1003.01
2019-05-25T10:01:04.297Z,1002.98
2019-05-25T10:02:00.341Z,1002.92
2019-05-25T10:03:00.326Z,1002.89
2019-05-25T10:04:00.338Z,1002.89
2019-05-25T10:05:00.381Z,1002.86
2019-05-25T10:06:12.281Z,1002.80
2019-05-25T10:07:01.310Z,1002.76
2019-05-25T10:08:00.278Z,1002.83
2019-05-25T10:09:00.265Z,1002.83
2019-05-25T10:10:00.259Z,1002.82
2019-05-25T10:11:04.771Z,1002.93
2019-05-25T10:12:00.253Z,1002.78
2019-05-25T10:13:00.225Z,1002.77
2019-05-25T10:14:00.220Z,1002.81
2019-05-25T10:15:00.212Z,1002.80
2019-05-25T10:16:04.311Z,1002.76
2019-05-25T10:17:00.191Z,1002.50
2019-05-25T10:18:00.184Z,1002.49
2019-05-25T10:19:00.177Z,1002.47
2019-05-25T10:20:00.165Z,1002.37
2019-05-25T10:21:04.433Z,1002.69
2019-05-25T10:22:00.150Z,1002.67
2019-05-25T10:23:00.141Z,1002.62
2019-05-25T10:24:00.119Z,1002.58
2019-05-25T10:25:00.151Z,1002.53
2019-05-25T10:26:06.108Z,1002.51
2019-05-25T10:27:00.123Z,1002.34
2019-05-25T10:28:00.089Z,1002.46
2019-05-25T10:29:00.082Z,1002.50
2019-05-25T10:30:00.080Z,1002.48
2019-05-25T10:31:00.097Z,1002.31
2019-05-25T10:32:00.040Z,1002.39
2019-05-25T10:33:00.043Z,1002.34
2019-05-25T10:34:00.025Z,1002.29
2019-05-25T10:35:00.019Z,1002.27
2019-05-25T10:36:00.013Z,1002.27
2019-05-25T10:37:00.018Z,1002.27
2019-05-25T10:37:59.999Z,1002.33
2019-05-25T10:38:59.973Z,1002.29
2019-05-25T10:39:59.968Z,1002.29
2019-05-25T10:40:59.961Z,1002.24
2019-05-25T10:41:59.963Z,1002.19
2019-05-25T10:42:59.931Z,1002.22
2019-05-25T10:43:59.937Z,1002.25
2019-05-25T10:44:59.911Z,1002.24
2019-05-25T10:45:59.904Z,1002.20
2019-05-25T10:47:00.063Z,1002.24
2019-05-25T10:47:59.894Z,1002.24
2019-05-25T10:48:59.879Z,1002.26
2019-05-25T10:49:59.860Z,1002.24
2019-05-25T10:50:59.848Z,1002.23
2019-05-25T10:51:59.855Z,1002.26
2019-05-25T10:52:59.828Z,1002.24
2019-05-25T10:53:59.852Z,1002.17
2019-05-25T10:54:59.816Z,1002.17
2019-05-25T10:55:59.796Z,1002.18
2019-05-25T10:56:59.808Z,1002.21
2019-05-25T10:57:59.781Z,1002.11
2019-05-25T10:58:59.779Z,1002.10
2019-05-25T10:59:59.768Z,1002.12
2019-05-25T11:00:59.751Z,1002.12
2019-05-25T11:01:59.778Z,1002.12
2019-05-25T11:02:59.723Z,1002.18
2019-05-25T11:03:59.710Z,1002.13
2019-05-25T11:04:59.705Z,1002.18
2019-05-25T11:05:59.695Z,1002.16
2019-05-25T11:06:59.726Z,1002.12
2019-05-25T11:07:59.691Z,1002.11
2019-05-25T11:08:59.666Z,1002.11
2019-05-25T11:09:59.676Z,1002.09
2019-05-25T11:10:59.650Z,1002.05
2019-05-25T11:11:59.667Z,1002.11
2019-05-25T11:12:59.623Z,1002.07
2019-05-25T11:13:59.614Z,1002.05
2019-05-25T11:14:59.602Z,1002.04
2019-05-25T11:15:59.586Z,1002.03
2019-05-25T11:16:59.612Z,1002.02
2019-05-25T11:17:59.571Z,1002.01
2019-05-25T11:18:59.567Z,1002.02
2019-05-25T11:19:59.550Z,1001.98
2019-05-25T11:20:59.536Z,1001.99
2019-05-25T11:21:59.541Z,1002.03
2019-05-25T11:22:59.520Z,1001.98
2019-05-25T11:23:59.499Z,1001.99
2019-05-25T11:24:59.491Z,1002.04
2019-05-25T11:25:59.529Z,1002.04
2019-05-25T11:26:59.806Z,1001.95
2019-05-25T11:27:59.455Z,1001.99
2019-05-25T11:28:59.449Z,1001.99
2019-05-25T11:30:08.408Z,1002.00
2019-05-25T11:31:00.433Z,1002.01
2019-05-25T11:32:03.985Z,1002.04
2019-05-25T11:33:00.405Z,1002.06
2019-05-25T11:33:59.398Z,1001.99
2019-05-25T11:34:59.384Z,1001.99
2019-05-25T11:35:59.374Z,1002.00
2019-05-25T11:36:59.380Z,1002.03
2019-05-25T11:37:59.372Z,1002.03
2019-05-25T11:38:59.349Z,1002.03
2019-05-25T11:39:59.351Z,1002.02
2019-05-25T11:40:59.327Z,1002.06
2019-05-25T11:41:59.327Z,1002.02
2019-05-25T11:42:59.369Z,1002.01
2019-05-25T11:43:59.301Z,1002.02
2019-05-25T11:44:59.284Z,1001.97
2019-05-25T11:45:59.269Z,1001.98
2019-05-25T11:46:59.272Z,1001.96
2019-05-25T11:47:59.241Z,1001.97
2019-05-25T11:48:59.240Z,1001.92
2019-05-25T11:49:59.229Z,1001.88
2019-05-25T11:50:59.216Z,1001.95
2019-05-25T11:51:59.222Z,1001.88
2019-05-25T11:52:59.201Z,1001.96
2019-05-25T11:53:59.187Z,1001.86
2019-05-25T11:54:59.167Z,1001.86
2019-05-25T11:55:59.174Z,1001.98
2019-05-25T11:56:59.172Z,1001.91
2019-05-25T11:57:59.169Z,1001.88
2019-05-25T11:58:59.136Z,1001.98
2019-05-25T11:59:59.115Z,1001.89
2019-05-25T12:00:59.106Z,1001.95
2019-05-25T12:01:59.102Z,1001.93
2019-05-25T12:02:59.127Z,1001.94
2019-05-25T12:03:59.077Z,1001.97
2019-05-25T12:04:59.075Z,1001.98